Rio Vista Municipal (O88)
Rio Vista, CA
Field Elevation: 23
Lat: 38°11.60N  Long: 121°42.22W
CTAF/Unicom Freq: 122.7250
   
     For Weather-by-Phone, call (707) 374-5396
Weather Advisories
11/1/2014 04:22 Z
Altimeter 29.74" Hg
Wind 090° @ 6 KT
Gusts --
Visibility 10 SM
Ceiling FEW045
Temperature 14° C (57° F)
Dewpoint 12° C (54° F)
Relative Humidity 89%
Density Altitude --
Condensation Altitude --
  Wind and Runways
Indicated Runway = 7
History
 
 
More Info
All DigiWx sites map
NOAA Forecast
 
Airport IQ 5010
(DUC) Stack Farm
(CA37) Dominican
 
about DigiWx
 
FAA Disclaimer: The data displayed is for advisory purposes only and is not to be used for flight planning or operations. For official data, please call (707) 374-5396 to hear the current automated AWOS voice message.
  METAR O88 010422Z AUTO 09006KT 10SM FEW045 14/12 A2974